Amarillo, TX (79101)

1:16 AM CDT on March 24, 2017 (GMT -0500)
Plemons-Eakle | | Change Station
Active Advisory: High Wind Watch

Elev 3678 ft 35.19 °N, 101.84 °W | Updated 2 seconds ago

Mostly Cloudy
Mostly Cloudy
51.4 °F
Feels Like 51.4 °F
N
7.3
Wind Variable Wind from SW
Gusts 23.0 mph

Today
High -- | Low -- °F
--% Chance of Precip.
Yesterday
High -- | Low -- °F
Precip. -- in
Pressure 29.57 in
Visibility 10.0 miles
Clouds Mostly Cloudy 11000 ft
Dew Point 31 °F
Humidity 46%
Rainfall 0.00 in
Snow Depth Not available.
7:44 AM 8:02 PM
Waning Crescent, 17% visible
METAR KAMA 240553Z AUTO 24035G43KT 10SM BKN110 11/M01 A2969 RMK AO2 PK WND 24043/0546 SLP011 60010 T01111006 10233 20111 402780111 58000 $
Pressure 29.57 in
Visibility 10.0 miles
Clouds Mostly Cloudy 11000 ft
Dew Point 31 °F
Humidity 46%
Rainfall 0.00 in
Snow Depth Not available.
7:44 AM 8:02 PM
Waning Crescent, 17% visible
METAR KAMA 240553Z AUTO 24035G43KT 10SM BKN110 11/M01 A2969 RMK AO2 PK WND 24043/0546 SLP011 60010 T01111006 10233 20111 402780111 58000 $

Get Your Daily Forecast Email!

Thanks for signing up!

Be on the lookout for a verification email in your inbox.

You'll start receiving severe weather alerts in your inbox..

×

10-Day Weather Forecast

Almanac

Astronomy

Mar. 24, 2017 Rise Set
Actual Time
Civil Twilight
Nautical Twilight
Astronomical Twilight
Moon
Length of Visible Light
Length of Day
Tomorrow will be .
, % of the Moon is Illuminated

Today's Extremes

State Highs State Lows

Community

WunderPhotos

Upload Photos

1,962,540 photos uploaded!

WunderBlog® & News

Nearby

Air Quality

  Air Quality AQ Index Pollutant
Not available.

Snow Depth

Station Depth Elevation

Earthquake Activity

City Distance Mag. Time & Date
Minimum magnitude displayed is 2.5.

Earthquake Activity

City Distance Mag. Time & Date
Minimum magnitude displayed is 2.5.

Coastal Water Temperatures

Place Temperature

Stations

Nearby Weather Stations

Station Location Temp. Windchill Dew Point Humidity Wind Precip. Elev Updated Type
                   

Watches & Warnings

High Wind Watch
Issued: 8:08 PM CDT Mar. 23, 2017 – National Weather Service

... High wind watch remains in effect from Friday morning through
Friday evening...
... Wind Advisory has expired...

* timing... from 1 PM this afternoon to 8 PM CDT this evening.

* Winds... west 40 to 50 mph with gusts up to 70 mph.

* Impacts... sudden w